Time;durP1;ratioP1;P1;durP2;ratioP2;P2;SDS_P1;SDS_P2;PMS_P1;PMS_P2;Temp;Humidity;BMP_temperature;BMP_pressure;BME280_temperature;BME280_humidity;BME280_pressure;Samples;Min_cycle;Max_cycle;Signal;HPM_P1;HPM_P2
2022/08/25 00:01:54;;;;;;;3.40;2.30;;;;;;;21.76;48.59;100632.72;5061486;28;20481;-78
2022/08/25 00:04:22;;;;;;;3.20;2.00;;;;;;;21.67;48.11;100624.97;5046630;28;20473;-78
2022/08/25 00:06:49;;;;;;;4.20;2.50;;;;;;;21.66;49.04;100639.63;5076324;28;20549;-78
2022/08/25 00:09:23;;;;;;;3.57;2.47;;;;;;;21.70;49.16;100630.84;5078721;28;20450;-78
2022/08/25 00:11:51;;;;;;;4.53;2.27;;;;;;;21.63;49.60;100640.88;5076479;28;20476;-78
2022/08/25 00:14:20;;;;;;;3.40;2.60;;;;;;;21.55;48.11;100635.59;5061816;28;20993;-77
2022/08/25 00:16:47;;;;;;;7.20;2.73;;;;;;;21.57;48.04;100641.69;5061363;28;20556;-77
2022/08/25 00:19:16;;;;;;;2.83;2.40;;;;;;;21.70;47.60;100639.00;5061809;28;20441;-79
2022/08/25 00:21:43;;;;;;;4.80;2.70;;;;;;;21.71;47.36;100632.50;5072007;28;20472;-78
2022/08/25 00:24:10;;;;;;;5.03;2.67;;;;;;;21.59;47.46;100634.16;5075302;28;20578;-78
2022/08/25 00:26:40;;;;;;;5.27;2.50;;;;;;;21.55;47.84;100630.16;5062200;28;20481;-77
2022/08/25 00:29:08;;;;;;;5.40;2.60;;;;;;;21.48;48.11;100630.13;5067095;28;20472;-79
2022/08/25 00:31:35;;;;;;;5.10;2.70;;;;;;;21.36;48.44;100629.00;5047057;28;20512;-79
2022/08/25 00:34:02;;;;;;;3.83;2.60;;;;;;;21.15;49.72;100629.94;5057308;28;20464;-79
2022/08/25 00:36:29;;;;;;;4.53;2.50;;;;;;;20.97;51.16;100636.75;5061089;28;20887;-79
2022/08/25 00:38:56;;;;;;;4.00;2.73;;;;;;;20.92;51.46;100635.66;5061988;28;20441;-79
2022/08/25 00:41:25;;;;;;;9.00;2.53;;;;;;;20.84;51.81;100634.78;5061448;28;20477;-79
2022/08/25 00:43:55;;;;;;;4.67;2.77;;;;;;;20.77;52.21;100636.59;5078080;28;20495;-79
2022/08/25 00:46:25;;;;;;;6.47;2.90;;;;;;;20.72;51.93;100638.25;5073258;28;20568;-79
2022/08/25 00:48:57;;;;;;;3.53;2.20;;;;;;;20.59;52.10;100639.78;5079603;28;20475;-79
2022/08/25 00:51:29;;;;;;;3.77;2.60;;;;;;;20.52;52.33;100644.34;5081082;28;20471;-80
2022/08/25 00:53:56;;;;;;;4.37;2.40;;;;;;;20.49;53.62;100644.72;5079815;28;20460;-79
2022/08/25 00:56:23;;;;;;;3.43;2.90;;;;;;;20.41;54.03;100644.84;5081067;28;20551;-79
2022/08/25 00:58:50;;;;;;;4.00;2.77;;;;;;;20.30;54.47;100647.06;5067064;28;20472;-79
2022/08/25 01:01:17;;;;;;;4.33;2.70;;;;;;;20.28;55.34;100646.41;5073344;28;20558;-79
2022/08/25 01:03:45;;;;;;;3.80;2.80;;;;;;;20.19;55.40;100642.16;5066293;28;20579;-79
2022/08/25 01:06:12;;;;;;;4.73;3.00;;;;;;;20.18;55.53;100642.34;5071377;28;20499;-79
2022/08/25 01:08:39;;;;;;;3.80;3.20;;;;;;;20.10;56.56;100641.47;5080907;28;20448;-79
2022/08/25 01:11:07;;;;;;;6.40;3.07;;;;;;;20.04;57.10;100649.53;5080828;28;20496;-79
2022/08/25 01:13:43;;;;;;;4.23;2.73;;;;;;;20.01;57.22;100642.59;5067448;28;21245;-79
2022/08/25 01:16:11;;;;;;;4.10;2.73;;;;;;;19.93;57.61;100640.03;5060575;28;20526;-79
2022/08/25 01:18:51;;;;;;;6.13;2.83;;;;;;;19.84;58.01;100639.31;5075324;28;20467;-79
2022/08/25 01:21:21;;;;;;;5.90;2.93;;;;;;;19.78;58.06;100640.06;5076806;28;20491;-79
2022/08/25 01:23:48;;;;;;;5.27;3.10;;;;;;;19.74;58.51;100641.50;5083792;28;20495;-79
2022/08/25 01:26:17;;;;;;;4.33;2.90;;;;;;;19.70;58.90;100637.44;5074563;28;20523;-78
2022/08/25 01:31:28;;;;;;;3.77;2.97;;;;;;;19.62;60.12;100637.56;5063336;28;20564;-79
2022/08/25 01:33:54;;;;;;;5.60;3.40;;;;;;;19.59;60.35;100632.50;5081119;28;20463;-78
2022/08/25 01:36:23;;;;;;;4.43;3.70;;;;;;;19.52;61.06;100640.56;5083497;28;20935;-79
2022/08/25 01:38:50;;;;;;;6.03;3.67;;;;;;;19.46;61.39;100634.03;5072570;28;20452;-80
2022/08/25 01:41:22;;;;;;;4.83;3.20;;;;;;;19.48;61.95;100639.28;5080265;28;20467;-80
2022/08/25 01:43:49;;;;;;;4.10;3.70;;;;;;;19.39;62.39;100638.53;5071169;28;20444;-80
2022/08/25 01:46:15;;;;;;;4.13;3.73;;;;;;;19.40;62.47;100642.09;5064706;28;20993;-80
2022/08/25 01:48:42;;;;;;;3.80;3.40;;;;;;;19.35;62.71;100639.94;5065083;28;20469;-79
2022/08/25 01:51:08;;;;;;;5.20;3.50;;;;;;;19.30;61.81;100637.78;5068637;28;20502;-79
2022/08/25 01:53:37;;;;;;;5.90;3.97;;;;;;;19.21;62.25;100633.50;5071708;28;20509;-80
2022/08/25 01:56:11;;;;;;;4.27;3.87;;;;;;;19.16;62.65;100636.75;5070018;28;20464;-80
2022/08/25 01:58:39;;;;;;;3.80;3.40;;;;;;;19.13;62.83;100639.84;5080676;28;20443;-79
2022/08/25 02:01:08;;;;;;;4.60;3.77;;;;;;;19.11;63.19;100627.50;5064382;28;20495;-79
2022/08/25 02:03:38;;;;;;;4.80;3.80;;;;;;;19.06;63.12;100633.50;5070757;28;20496;-79
2022/08/25 02:06:05;;;;;;;6.10;4.23;;;;;;;19.08;63.12;100638.72;5065411;28;20566;-80
2022/08/25 02:08:32;;;;;;;6.03;4.10;;;;;;;19.07;63.00;100634.34;5064746;28;20449;-80
2022/08/25 02:11:01;;;;;;;9.63;4.43;;;;;;;19.02;63.30;100634.88;5065135;28;20507;-79
2022/08/25 02:13:28;;;;;;;4.77;3.57;;;;;;;19.02;63.32;100626.75;5064778;28;20461;-80
2022/08/25 02:15:55;;;;;;;4.83;3.80;;;;;;;19.05;63.06;100631.81;5068501;28;20477;-79
2022/08/25 02:18:22;;;;;;;5.47;3.70;;;;;;;19.00;64.10;100632.38;5066857;28;20579;-78
2022/08/25 02:20:49;;;;;;;4.47;3.50;;;;;;;18.98;64.00;100626.28;5083389;28;20475;-79
2022/08/25 02:23:16;;;;;;;8.50;4.17;;;;;;;18.93;64.60;100636.03;5079932;28;20436;-79
2022/08/25 02:25:44;;;;;;;4.80;4.27;;;;;;;18.90;64.75;100636.38;5069238;28;20515;-80
2022/08/25 02:28:12;;;;;;;4.97;4.20;;;;;;;18.78;64.47;100636.81;5084493;28;20472;-80
2022/08/25 02:30:41;;;;;;;8.37;4.10;;;;;;;18.69;64.77;100639.78;5077579;28;20503;-80
2022/08/25 02:33:08;;;;;;;4.90;3.77;;;;;;;18.66;65.14;100637.44;5064839;28;20815;-80
2022/08/25 02:35:35;;;;;;;4.40;4.00;;;;;;;18.83;64.57;100639.00;5062922;28;20465;-79
2022/08/25 02:38:01;;;;;;;6.20;4.20;;;;;;;18.74;64.79;100632.78;5066286;28;20532;-79
2022/08/25 02:40:29;;;;;;;4.53;3.53;;;;;;;18.68;64.97;100633.53;5067868;28;20463;-79
2022/08/25 02:42:56;;;;;;;5.10;3.90;;;;;;;18.69;65.23;100627.06;5070176;28;20447;-79
2022/08/25 02:45:24;;;;;;;9.63;4.30;;;;;;;18.66;65.24;100632.03;5063954;28;20453;-79
2022/08/25 02:47:51;;;;;;;5.43;4.10;;;;;;;18.61;65.37;100628.00;5080685;28;20555;-79
2022/08/25 02:50:17;;;;;;;4.60;4.10;;;;;;;18.60;65.54;100626.31;5083116;28;20447;-79
2022/08/25 02:52:44;;;;;;;5.77;4.83;;;;;;;18.60;65.61;100622.78;5072951;28;20521;-79
2022/08/25 02:55:12;;;;;;;4.30;3.93;;;;;;;18.65;65.56;100623.06;5063459;28;20529;-79
2022/08/25 02:57:40;;;;;;;5.13;4.30;;;;;;;18.61;65.82;100624.47;5075489;28;20436;-79
2022/08/25 03:00:09;;;;;;;9.63;4.80;;;;;;;18.48;65.96;100625.06;5070836;28;20444;-79
2022/08/25 03:02:37;;;;;;;4.70;3.83;;;;;;;18.50;66.40;100627.59;5073228;28;20459;-79
2022/08/25 03:05:06;;;;;;;6.60;4.10;;;;;;;18.52;66.54;100625.56;5064737;28;21020;-80
2022/08/25 03:07:33;;;;;;;5.10;4.70;;;;;;;18.50;66.85;100620.31;5063274;28;20481;-80
2022/08/25 03:10:00;;;;;;;5.57;3.57;;;;;;;18.32;67.61;100626.06;5058585;28;20541;-80
2022/08/25 03:12:26;;;;;;;5.90;3.63;;;;;;;18.32;67.43;100623.38;5060027;28;20504;-79
2022/08/25 03:14:53;;;;;;;4.70;3.90;;;;;;;18.29;67.80;100621.00;5059835;28;20461;-79
2022/08/25 03:17:20;;;;;;;4.97;4.27;;;;;;;18.24;68.03;100618.00;5063755;28;20487;-79
2022/08/25 03:19:48;;;;;;;5.17;4.23;;;;;;;18.20;67.95;100624.81;5063200;28;20472;-79
2022/08/25 03:22:14;;;;;;;4.50;4.10;;;;;;;18.15;68.31;100621.81;5071775;28;20506;-79
2022/08/25 03:24:41;;;;;;;4.90;4.40;;;;;;;18.13;68.06;100626.56;5062714;28;20499;-79
2022/08/25 03:27:07;;;;;;;4.60;4.20;;;;;;;18.06;68.16;100630.00;5064495;28;20496;-79
2022/08/25 03:29:33;;;;;;;4.83;4.03;;;;;;;18.01;68.48;100628.84;5060357;28;20441;-78
2022/08/25 03:32:01;;;;;;;8.33;4.90;;;;;;;17.94;68.70;100623.31;5068990;28;20257;-79
2022/08/25 03:34:29;;;;;;;4.97;4.03;;;;;;;17.98;69.13;100630.03;5067415;28;20479;-79
2022/08/25 03:36:57;;;;;;;8.70;4.57;;;;;;;18.00;68.67;100629.84;5063140;28;20507;-79
2022/08/25 03:39:25;;;;;;;4.40;4.00;;;;;;;17.91;68.83;100630.94;5079561;28;20448;-79
2022/08/25 03:41:52;;;;;;;5.73;4.30;;;;;;;17.92;69.02;100625.38;5080646;28;20475;-78
2022/08/25 03:44:20;;;;;;;5.30;4.03;;;;;;;17.89;69.19;100623.00;5061973;28;21040;-78
2022/08/25 03:46:48;;;;;;;5.67;4.47;;;;;;;17.87;69.18;100620.47;5062944;28;20500;-78
2022/08/25 03:49:17;;;;;;;6.67;4.93;;;;;;;17.82;70.00;100625.56;5062323;28;20476;-79
2022/08/25 03:51:46;;;;;;;5.30;4.20;;;;;;;17.77;70.21;100624.41;5079159;28;20483;-79
2022/08/25 03:54:15;;;;;;;5.40;4.90;;;;;;;17.76;69.66;100617.31;5081390;28;20494;-79
2022/08/25 03:56:42;;;;;;;9.83;5.07;;;;;;;17.79;69.90;100611.53;5068910;28;20571;-79
2022/08/25 03:59:10;;;;;;;9.60;5.17;;;;;;;17.67;70.10;100603.84;5068540;28;20455;-79
2022/08/25 04:01:36;;;;;;;5.20;3.87;;;;;;;17.65;70.46;100605.91;5067929;28;20488;-80
2022/08/25 04:04:04;;;;;;;9.00;5.63;;;;;;;17.71;70.57;100604.34;5072025;28;20980;-78
2022/08/25 04:06:32;;;;;;;6.80;5.27;;;;;;;17.99;69.34;100601.97;5076408;28;20491;-80
2022/08/25 04:08:58;;;;;;;6.40;5.20;;;;;;;18.16;68.67;100597.28;5062723;28;20479;-80
2022/08/25 04:11:27;;;;;;;4.70;4.30;;;;;;;18.45;67.38;100598.38;5070808;28;20636;-80
2022/08/25 04:13:57;;;;;;;6.00;3.93;;;;;;;18.44;67.71;100592.13;5069480;28;20445;-79
2022/08/25 04:16:26;;;;;;;6.67;4.67;;;;;;;18.54;66.92;100580.19;5062265;28;20516;-79
2022/08/25 04:18:55;;;;;;;8.13;3.90;;;;;;;18.69;66.53;100581.03;5062429;28;20425;-80
2022/08/25 04:21:22;;;;;;;6.27;4.80;;;;;;;18.64;66.58;100583.47;5066684;28;20508;-79
2022/08/25 04:23:51;;;;;;;4.90;3.80;;;;;;;18.48;67.16;100594.47;5079626;28;20424;-80
2022/08/25 04:26:24;;;;;;;10.67;5.07;;;;;;;18.23;67.85;100592.81;5058077;28;20477;-79
2022/08/25 04:28:53;;;;;;;7.33;4.90;;;;;;;18.17;68.54;100595.41;5059664;28;20481;-78
2022/08/25 04:31:21;;;;;;;6.47;4.93;;;;;;;18.15;68.62;100602.88;5060623;28;20488;-85
2022/08/25 04:33:48;;;;;;;7.63;4.80;;;;;;;18.17;68.22;100596.25;5053973;28;20520;-83
2022/08/25 04:36:16;;;;;;;6.23;4.40;;;;;;;18.40;67.54;100601.66;5064868;28;20491;-82
2022/08/25 04:38:44;;;;;;;7.23;5.40;;;;;;;18.80;66.03;100598.69;5047067;28;20491;-82
2022/08/25 04:41:12;;;;;;;6.80;4.03;;;;;;;19.00;65.56;100594.44;5057241;28;20481;-82
2022/08/25 04:43:40;;;;;;;5.80;4.40;;;;;;;18.97;65.07;100596.66;5061896;28;20417;-82
2022/08/25 04:46:11;;;;;;;6.33;5.03;;;;;;;19.12;64.22;100594.81;5059493;28;20491;-81
2022/08/25 04:48:38;;;;;;;5.40;4.30;;;;;;;19.28;64.24;100595.63;5055058;28;20477;-82
2022/08/25 04:51:05;;;;;;;6.90;4.73;;;;;;;18.93;64.49;100588.09;5058772;28;20465;-81
2022/08/25 04:53:32;;;;;;;6.73;4.70;;;;;;;18.73;65.35;100589.63;5058691;28;20471;-80
2022/08/25 04:55:59;;;;;;;5.67;4.97;;;;;;;18.62;65.91;100577.38;5073571;28;20496;-80
2022/08/25 04:58:26;;;;;;;5.30;4.70;;;;;;;18.77;66.37;100575.53;5066309;28;20437;-80
2022/08/25 05:00:53;;;;;;;7.60;4.40;;;;;;;19.33;64.60;100577.75;5066094;28;20547;-79
2022/08/25 05:03:21;;;;;;;5.70;4.30;;;;;;;20.50;60.96;100586.63;5075910;28;20502;-80
2022/08/25 05:05:48;;;;;;;5.93;4.50;;;;;;;21.70;56.90;100584.59;5072477;28;20567;-80
2022/08/25 05:08:14;;;;;;;4.50;3.70;;;;;;;22.61;53.50;100583.19;5046506;28;20478;-83
2022/08/25 05:10:41;;;;;;;9.33;4.30;;;;;;;23.57;50.27;100576.16;5055755;28;20481;-87
2022/08/25 05:13:08;;;;;;;7.47;4.60;;;;;;;24.08;48.16;100576.28;5086623;28;20424;-88
2022/08/25 05:15:50;;;;;;;8.73;4.60;;;;;;;24.23;47.47;100582.25;5085317;28;20667;-88
2022/08/25 05:18:17;;;;;;;8.23;4.20;;;;;;;24.82;45.99;100588.25;5086457;28;20424;-85
2022/08/25 05:20:45;;;;;;;12.93;4.77;;;;;;;24.83;45.74;100591.84;5079473;28;20479;-83
2022/08/25 05:23:12;;;;;;;8.90;5.23;;;;;;;24.90;45.64;100589.88;5067096;28;20472;-85
2022/08/25 05:25:39;;;;;;;8.40;4.53;;;;;;;24.79;45.16;100589.56;5069589;28;20468;-86
2022/08/25 05:28:05;;;;;;;5.67;4.43;;;;;;;25.43;44.10;100597.44;5071882;28;20465;-85
2022/08/25 05:30:32;;;;;;;10.47;4.27;;;;;;;25.91;42.66;100582.03;5073981;28;20461;-85
2022/08/25 05:32:59;;;;;;;5.87;4.10;;;;;;;26.15;42.81;100582.97;5065839;28;20506;-85
2022/08/25 05:35:25;;;;;;;5.83;3.90;;;;;;;26.84;40.73;100585.16;5061917;28;21025;-85
2022/08/25 05:37:56;;;;;;;5.47;4.03;;;;;;;27.11;39.84;100584.63;5067468;28;20445;-84
2022/08/25 05:40:23;;;;;;;6.77;4.13;;;;;;;26.07;41.36;100586.88;5066970;28;20433;-83
2022/08/25 05:42:50;;;;;;;4.70;3.83;;;;;;;26.12;42.56;100576.03;5062660;28;20460;-84
2022/08/25 05:45:17;;;;;;;6.60;3.90;;;;;;;26.93;40.68;100580.16;5054273;28;20496;-85
2022/08/25 05:47:44;;;;;;;8.63;4.30;;;;;;;27.05;40.79;100590.00;5061640;28;20515;-84
2022/08/25 05:50:11;;;;;;;7.57;3.63;;;;;;;26.34;40.71;100591.09;5060827;28;20461;-84
2022/08/25 05:52:38;;;;;;;5.43;4.23;;;;;;;27.35;39.50;100588.19;5055536;28;20461;-85
2022/08/25 05:55:07;;;;;;;7.30;4.17;;;;;;;26.20;41.44;100587.75;5059332;28;20850;-84
2022/08/25 05:57:34;;;;;;;8.37;3.87;;;;;;;26.29;41.43;100592.63;5090917;28;20448;-86
2022/08/25 06:00:01;;;;;;;7.83;3.27;;;;;;;28.06;38.00;100593.38;5098965;28;20443;-86
2022/08/25 06:02:47;;;;;;;4.87;3.53;;;;;;;28.22;37.64;100600.78;5098472;28;20869;-85
2022/08/25 06:05:16;;;;;;;8.10;3.70;;;;;;;27.68;38.37;100592.13;5092831;28;20470;-86
2022/08/25 06:07:44;;;;;;;10.57;4.23;;;;;;;28.31;37.07;100593.78;5097291;28;20572;-87
2022/08/25 06:10:13;;;;;;;11.50;4.00;;;;;;;28.54;36.81;100583.72;5095710;28;20462;-85
2022/08/25 06:12:43;;;;;;;4.47;3.70;;;;;;;28.35;37.45;100591.38;5094130;28;20452;-85
2022/08/25 06:15:11;;;;;;;6.93;3.60;;;;;;;28.97;36.26;100581.28;5085791;28;20462;-84
2022/08/25 06:17:39;;;;;;;6.03;3.90;;;;;;;28.50;37.04;100579.78;5085716;28;20455;-87
2022/08/25 06:20:07;;;;;;;6.20;3.70;;;;;;;28.44;37.61;100581.63;5084858;28;20445;-86
2022/08/25 06:22:34;;;;;;;4.57;3.50;;;;;;;28.82;37.07;100576.41;5064154;28;20461;-85
2022/08/25 06:25:01;;;;;;;6.83;3.80;;;;;;;29.58;36.07;100570.19;5064946;28;20454;-86
2022/08/25 06:27:29;;;;;;;5.13;3.80;;;;;;;29.72;35.61;100567.84;5064890;28;20659;-85
2022/08/25 06:29:56;;;;;;;6.50;4.00;;;;;;;30.19;34.54;100557.03;5069787;28;20421;-86
2022/08/25 06:32:23;;;;;;;7.03;4.13;;;;;;;29.96;34.58;100569.22;5068931;28;20473;-87
2022/08/25 06:34:50;;;;;;;7.30;4.00;;;;;;;29.06;36.48;100568.75;5070225;28;20491;-86
2022/08/25 06:37:16;;;;;;;8.60;3.80;;;;;;;29.79;35.22;100568.50;5067932;28;20508;-86
2022/08/25 06:39:43;;;;;;;5.83;4.17;;;;;;;30.27;34.46;100568.66;5065225;28;20487;-87
2022/08/25 06:42:10;;;;;;;4.47;3.40;;;;;;;30.60;33.40;100565.59;5064617;28;20497;-86
2022/08/25 06:44:38;;;;;;;5.30;4.00;;;;;;;31.33;31.89;100564.03;5065631;28;20439;-86
2022/08/25 06:47:05;;;;;;;8.57;3.90;;;;;;;30.13;34.26;100571.84;5064385;28;20490;-86
2022/08/25 06:49:32;;;;;;;5.83;3.03;;;;;;;30.38;33.66;100576.78;5065154;28;20481;-87
2022/08/25 06:51:58;;;;;;;5.70;3.17;;;;;;;30.91;32.97;100557.47;5064223;28;20560;-87
2022/08/25 06:54:25;;;;;;;6.23;3.70;;;;;;;31.47;32.21;100562.38;5064677;28;20487;-87
2022/08/25 06:56:52;;;;;;;4.17;3.13;;;;;;;31.51;32.10;100569.09;5065014;28;20857;-88
2022/08/25 06:59:18;;;;;;;5.53;3.77;;;;;;;31.81;32.14;100569.41;5066142;28;20434;-87
2022/08/25 07:01:46;;;;;;;6.50;3.80;;;;;;;30.59;34.18;100577.75;5065025;28;21034;-87
2022/08/25 07:04:13;;;;;;;4.50;3.20;;;;;;;30.50;34.66;100570.22;5059587;28;20463;-87
2022/08/25 07:06:40;;;;;;;5.60;3.23;;;;;;;31.93;32.35;100566.38;5066820;28;20593;-87
2022/08/25 07:09:09;;;;;;;4.50;3.60;;;;;;;31.80;31.95;100568.56;5071145;28;20517;-86
2022/08/25 07:11:36;;;;;;;5.17;3.10;;;;;;;32.72;31.06;100564.13;5072307;28;20473;-86
2022/08/25 07:14:04;;;;;;;4.17;3.07;;;;;;;32.99;30.08;100566.53;5069513;28;20434;-87
2022/08/25 07:16:31;;;;;;;5.20;3.50;;;;;;;32.31;31.78;100561.41;5066497;28;20549;-87
2022/08/25 07:19:00;;;;;;;5.57;3.20;;;;;;;32.63;31.13;100567.47;5063403;28;20550;-86
2022/08/25 07:21:29;;;;;;;2.93;2.63;;;;;;;32.76;31.15;100559.69;5067321;28;20467;-86
2022/08/25 07:23:58;;;;;;;5.27;3.60;;;;;;;33.37;30.05;100565.00;5069210;28;20437;-86
2022/08/25 07:26:28;;;;;;;7.50;3.53;;;;;;;33.04;30.41;100569.28;5068374;28;20830;-87
2022/08/25 07:28:55;;;;;;;7.50;3.80;;;;;;;32.95;30.96;100568.19;5065384;28;20466;-85
2022/08/25 07:31:22;;;;;;;7.10;3.43;;;;;;;32.74;31.79;100572.97;5064123;28;20500;-87
2022/08/25 07:36:35;;;;;;;7.93;3.27;;;;;;;34.25;29.47;100564.41;5068620;28;20500;-87
2022/08/25 07:39:04;;;;;;;7.03;3.50;;;;;;;35.11;28.40;100563.75;5069388;28;20541;-87
2022/08/25 07:41:31;;;;;;;6.80;3.33;;;;;;;34.28;29.56;100566.59;5068546;28;20553;-87
2022/08/25 07:43:58;;;;;;;4.53;4.13;;;;;;;33.46;30.88;100569.94;5069222;28;20461;-87
2022/08/25 07:46:25;;;;;;;6.87;4.40;;;;;;;33.25;31.20;100572.81;5049235;28;20475;-86
2022/08/25 07:48:51;;;;;;;8.50;3.80;;;;;;;33.84;31.09;100567.50;5047744;28;20476;-87
2022/08/25 07:51:18;;;;;;;9.37;4.03;;;;;;;34.32;30.51;100560.19;5046792;28;20503;-87
2022/08/25 07:53:46;;;;;;;7.40;4.40;;;;;;;35.22;28.95;100570.84;5046915;28;20439;-87
2022/08/25 07:56:14;;;;;;;6.80;3.90;;;;;;;35.32;28.95;100573.50;5043170;28;20482;-87
2022/08/25 07:58:42;;;;;;;4.90;4.50;;;;;;;35.40;29.33;100570.06;5046108;28;20435;-87
2022/08/25 08:01:13;;;;;;;7.77;5.13;;;;;;;34.35;30.45;100571.81;5044289;28;20970;-87
2022/08/25 08:03:41;;;;;;;6.20;4.83;;;;;;;34.12;31.59;100574.19;5054397;28;20559;-87
2022/08/25 08:06:08;;;;;;;6.27;5.23;;;;;;;34.26;31.43;100568.84;5042750;28;20481;-87
2022/08/25 08:08:36;;;;;;;6.30;4.97;;;;;;;34.37;31.31;100562.06;5045189;28;20542;-86
2022/08/25 08:11:05;;;;;;;9.87;4.67;;;;;;;34.35;31.34;100564.28;5041992;28;20499;-86
2022/08/25 08:13:32;;;;;;;6.33;4.53;;;;;;;34.95;30.55;100563.97;5042837;28;20442;-86
2022/08/25 08:15:59;;;;;;;7.10;5.77;;;;;;;33.40;33.32;100563.56;5055680;28;20991;-86
2022/08/25 08:18:26;;;;;;;12.00;7.07;;;;;;;33.44;32.85;100570.22;5062941;28;20419;-86
2022/08/25 08:20:52;;;;;;;6.70;5.70;;;;;;;33.27;33.44;100565.03;5061913;28;20512;-86
2022/08/25 08:23:19;;;;;;;9.87;6.00;;;;;;;34.47;32.37;100564.72;5062404;28;20437;-86
2022/08/25 08:25:47;;;;;;;9.70;7.00;;;;;;;33.10;33.66;100570.91;5061907;28;20862;-85
2022/08/25 08:28:15;;;;;;;10.40;7.20;;;;;;;33.02;34.55;100563.22;5062467;28;20478;-86
2022/08/25 08:30:41;;;;;;;12.53;7.43;;;;;;;33.43;33.45;100557.47;5061159;28;20557;-85
2022/08/25 08:33:08;;;;;;;8.13;6.70;;;;;;;33.76;32.90;100563.38;5062461;28;20445;-86
2022/08/25 08:35:35;;;;;;;7.43;6.37;;;;;;;33.23;33.95;100563.97;5061722;28;20477;-85
2022/08/25 08:38:01;;;;;;;10.13;7.23;;;;;;;33.29;33.21;100557.28;5062597;28;20477;-86
2022/08/25 08:40:29;;;;;;;8.80;6.77;;;;;;;34.32;32.18;100553.78;5061585;28;20487;-86
2022/08/25 08:43:03;;;;;;;7.57;6.63;;;;;;;35.21;31.05;100553.38;5062576;28;20446;-86
2022/08/25 08:45:35;;;;;;;10.37;6.80;;;;;;;35.47;29.98;100555.78;5061382;28;20495;-86
2022/08/25 08:48:19;;;;;;;10.13;7.23;;;;;;;34.03;32.56;100551.00;5062149;28;20438;-86
2022/08/25 08:50:51;;;;;;;8.40;7.40;;;;;;;33.36;33.82;100548.66;5061275;28;20699;-86
2022/08/25 08:53:23;;;;;;;8.77;7.87;;;;;;;34.42;32.51;100537.03;5062202;28;20430;-86
2022/08/25 08:55:52;;;;;;;12.00;7.43;;;;;;;34.85;31.58;100536.31;5060737;28;20474;-86
2022/08/25 08:58:21;;;;;;;8.80;7.73;;;;;;;34.73;31.34;100545.03;5061827;28;20453;-86
2022/08/25 09:00:53;;;;;;;7.60;6.80;;;;;;;33.58;33.99;100531.59;5061172;28;20474;-85
2022/08/25 09:03:29;;;;;;;9.23;8.10;;;;;;;33.64;33.18;100530.44;5061619;28;20955;-86
2022/08/25 09:05:59;;;;;;;10.87;8.37;;;;;;;34.03;33.20;100532.38;5061195;28;20476;-86
2022/08/25 09:08:25;;;;;;;8.17;7.37;;;;;;;33.92;32.50;100534.44;5061861;28;20954;-86
2022/08/25 09:11:00;;;;;;;9.23;8.03;;;;;;;33.76;32.65;100522.59;5061281;28;20531;-86
2022/08/25 09:13:34;;;;;;;8.03;7.23;;;;;;;34.14;32.52;100530.34;5061791;28;20481;-86
2022/08/25 09:18:59;;;;;;;9.87;6.63;;;;;;;33.79;32.55;100518.44;5053445;28;20533;-86
2022/08/25 09:21:31;;;;;;;8.57;7.23;;;;;;;34.22;31.86;100531.66;5042746;28;20469;-86
2022/08/25 09:24:11;;;;;;;9.13;6.90;;;;;;;34.17;31.76;100523.41;5042099;28;20459;-86
2022/08/25 09:26:42;;;;;;;8.97;8.07;;;;;;;35.22;30.53;100518.88;5041275;28;20505;-86
2022/08/25 09:29:11;;;;;;;8.70;7.30;;;;;;;34.31;31.34;100510.50;5042046;28;20466;-87
2022/08/25 09:31:40;;;;;;;11.27;7.40;;;;;;;33.77;32.02;100504.88;5041189;28;20471;-86
2022/08/25 09:34:11;;;;;;;8.33;7.53;;;;;;;34.98;31.04;100504.19;5053809;28;20437;-86
2022/08/25 09:36:38;;;;;;;9.33;7.10;;;;;;;33.87;31.86;100500.34;5060514;28;20510;-85
2022/08/25 09:39:05;;;;;;;11.10;7.60;;;;;;;33.87;32.55;100501.19;5061778;28;20441;-86
2022/08/25 09:41:40;;;;;;;9.37;7.60;;;;;;;34.63;31.11;100507.06;5063360;28;20518;-86
2022/08/25 09:44:17;;;;;;;8.60;7.20;;;;;;;34.58;31.36;100497.97;5065811;28;20442;-86
2022/08/25 09:46:55;;;;;;;9.93;7.13;;;;;;;34.31;31.03;100497.44;5064544;28;20478;-88
2022/08/25 09:49:32;;;;;;;7.80;6.80;;;;;;;35.07;30.89;100494.88;5065272;28;20482;-86
2022/08/25 09:52:17;;;;;;;7.60;6.50;;;;;;;35.90;29.54;100488.94;5064126;28;20473;-86
2022/08/25 09:54:44;;;;;;;8.20;7.40;;;;;;;34.42;31.44;100495.38;5063838;28;20986;-86
2022/08/25 09:57:28;;;;;;;8.90;7.50;;;;;;;35.04;29.93;100478.00;5064143;28;20495;-85
2022/08/25 09:59:55;;;;;;;8.50;7.00;;;;;;;34.27;31.42;100473.34;5065113;28;20426;-87
2022/08/25 10:02:27;;;;;;;12.53;7.97;;;;;;;34.61;30.77;100481.56;5064557;28;20470;-86
2022/08/25 10:04:54;;;;;;;8.00;7.20;;;;;;;35.25;29.88;100459.91;5065270;28;20443;-86
2022/08/25 10:07:25;;;;;;;8.53;6.67;;;;;;;34.49;30.99;100462.53;5064095;28;20520;-85
2022/08/25 10:09:54;;;;;;;9.03;7.30;;;;;;;34.18;32.08;100459.25;5060995;28;20490;-86
2022/08/25 10:12:23;;;;;;;10.40;8.40;;;;;;;33.85;32.49;100458.19;5044259;28;20514;-87
2022/08/25 10:14:51;;;;;;;9.47;7.77;;;;;;;34.50;31.93;100444.78;5057710;28;20465;-87
2022/08/25 10:17:23;;;;;;;10.77;8.10;;;;;;;34.71;31.14;100452.88;5064372;28;20480;-85
2022/08/25 10:19:53;;;;;;;8.70;7.90;;;;;;;33.26;32.98;100437.88;5066110;28;20430;-88
2022/08/25 10:22:25;;;;;;;8.53;7.47;;;;;;;34.37;32.03;100439.09;5063973;28;20483;-88
2022/08/25 10:24:54;;;;;;;10.20;7.73;;;;;;;35.15;30.18;100436.97;5064695;28;20862;-86
2022/08/25 10:27:27;;;;;;;7.83;7.13;;;;;;;36.48;29.13;100426.31;5064188;28;20561;-86
2022/08/25 10:30:12;;;;;;;9.40;7.47;;;;;;;35.66;29.26;100416.72;5062393;28;20525;-87
2022/08/25 10:32:56;;;;;;;11.27;7.23;;;;;;;36.36;29.38;100420.44;5064390;28;20522;-88
2022/08/25 10:35:30;;;;;;;8.43;7.37;;;;;;;36.56;27.54;100410.81;5063693;28;20454;-86
2022/08/25 10:38:05;;;;;;;8.50;7.70;;;;;;;36.03;28.71;100405.78;5063730;28;20486;-86
2022/08/25 10:40:38;;;;;;;9.00;7.40;;;;;;;34.73;31.10;100397.84;5064548;28;20465;-87
2022/08/25 10:43:07;;;;;;;9.70;8.33;;;;;;;34.01;31.86;100393.16;5064404;28;20540;-88
2022/08/25 10:45:43;;;;;;;10.63;7.73;;;;;;;33.94;31.99;100392.69;5054009;28;20466;-88
2022/08/25 10:48:28;;;;;;;9.40;7.73;;;;;;;34.82;31.15;100384.94;5064430;28;20453;-87
2022/08/25 10:50:59;;;;;;;10.63;7.67;;;;;;;35.13;30.25;100383.66;5063965;28;20527;-90
2022/08/25 10:53:29;;;;;;;9.23;7.60;;;;;;;32.90;33.81;100382.66;5064666;28;20446;-88
2022/08/25 10:56:15;;;;;;;8.00;7.20;;;;;;;33.60;32.53;100385.22;5064697;28;20504;-88
2022/08/25 10:59:15;;;;;;;7.80;7.10;;;;;;;33.78;32.25;100378.13;5066165;28;20446;-88
2022/08/25 11:01:50;;;;;;;8.73;7.20;;;;;;;33.84;31.70;100368.63;5057830;28;20535;-89
2022/08/25 11:04:24;;;;;;;7.57;6.87;;;;;;;33.95;32.08;100369.34;5064627;28;20457;-86
2022/08/25 11:06:59;;;;;;;6.83;6.23;;;;;;;34.78;30.53;100363.63;5063636;28;20495;-88
2022/08/25 11:09:31;;;;;;;9.10;7.60;;;;;;;35.60;29.30;100367.88;5064541;28;20544;-88
2022/08/25 11:12:00;;;;;;;10.57;6.70;;;;;;;35.44;28.63;100356.19;5064780;28;20499;-87
2022/08/25 11:14:32;;;;;;;10.47;6.40;;;;;;;36.33;27.91;100355.06;5064278;28;21009;-87
2022/08/25 11:17:02;;;;;;;7.60;6.80;;;;;;;36.52;27.95;100362.47;5064123;28;20470;-87
2022/08/25 11:19:31;;;;;;;7.13;6.43;;;;;;;36.74;27.92;100345.81;5065590;28;20442;-89
2022/08/25 11:22:08;;;;;;;8.03;6.77;;;;;;;37.58;26.71;100351.84;5063401;28;20508;-87
2022/08/25 11:24:43;;;;;;;7.27;6.40;;;;;;;33.96;30.37;100355.19;5063209;28;20463;-88
2022/08/25 11:27:16;;;;;;;8.27;7.50;;;;;;;34.38;30.84;100360.28;5063621;28;20888;-87
2022/08/25 11:29:48;;;;;;;8.63;6.80;;;;;;;32.53;33.42;100346.03;5062158;28;20549;-89
2022/08/25 11:32:19;;;;;;;9.93;7.27;;;;;;;33.31;32.20;100352.75;5062810;28;20474;-88
2022/08/25 11:34:47;;;;;;;7.07;6.47;;;;;;;34.00;31.22;100346.28;5064374;28;20426;-87
2022/08/25 11:37:22;;;;;;;7.57;6.80;;;;;;;34.89;29.85;100348.44;5062646;28;20635;-87
2022/08/25 11:40:05;;;;;;;10.00;7.43;;;;;;;34.95;29.72;100354.75;5063951;28;20445;-88
2022/08/25 11:42:42;;;;;;;11.30;6.80;;;;;;;33.64;31.91;100352.19;5062939;28;20467;-86